»·PEaware :: N2296Q KMCC-KHWD

N2296Q :: KMCC-KHWD

FLIGHT INFORMATION

Flight Status: Arrived
Operator: Privately registered:
United States
More flights under this callsign
Pilot: Spranger J. (25072)
Aircraft: CESSNA 404 TITAN
(C404)
More flights by this aircraft type
Origin: KMCC McClellan
United States
Destination: KHWD Hayward Executive
United States
More flights between these airports :: More routes between these airports
Route: +SAC V334 SUNOL
File this flight plan on PilotEdge
Remarks:
Altitude:
(Current/Filed)
6,000ft
Speed:
(Current/Filed)
180kts
Departed: 26-Jun-19 10:49 AM
Arrived: 26-Jun-19 11:33 AM
Distance/Time
Traveled:
69nm/0:44
Distance/Time
To Go:
Arrived

Flight Plot

Page will automatically refresh every two minutes.

Flight plan parsing failed; only flown route is shown


Map Options




Map Legend


Flown Route
Filed Route
Departure Airport
Arrival Airport
Navaid (VOR, NDB)
Fix

Horizontal Profiles

Position Reports

Time Latitude Longitude Heading Altitude Ground
Speed
26-Jun-19 10:24 38.668454 -121.398075 90 79ft 0kts
26-Jun-19 10:25 38.668454 -121.398075 90 79ft 0kts
26-Jun-19 10:26 38.668454 -121.398075 90 79ft 0kts
26-Jun-19 10:27 38.668454 -121.398075 90 79ft 0kts
26-Jun-19 10:28 38.668454 -121.398075 90 79ft 0kts
26-Jun-19 10:29 38.668454 -121.398075 90 79ft 0kts
26-Jun-19 10:30 38.668454 -121.398075 90 79ft 0kts
26-Jun-19 10:31 38.668454 -121.398075 90 79ft 0kts
26-Jun-19 10:32 38.668454 -121.398075 90 79ft 0kts
26-Jun-19 10:33 38.668454 -121.398075 90 79ft 0kts
26-Jun-19 10:34 38.668454 -121.398075 90 79ft 0kts
26-Jun-19 10:35 38.668454 -121.398075 90 79ft 0kts
26-Jun-19 10:36 38.668454 -121.398075 90 79ft 0kts
26-Jun-19 10:37 38.668454 -121.398075 90 79ft 0kts
26-Jun-19 10:38 38.668454 -121.398043 87 79ft 1kts
26-Jun-19 10:39 38.671061 -121.398772 355 79ft 24kts
26-Jun-19 10:40 38.679312 -121.398815 353 79ft 31kts
26-Jun-19 10:41 38.681859 -121.399010 334 79ft 0kts
26-Jun-19 10:42 38.681859 -121.399010 334 79ft 0kts
26-Jun-19 10:43 38.681859 -121.399010 334 79ft 0kts
26-Jun-19 10:44 38.681859 -121.399010 334 79ft 0kts
26-Jun-19 10:45 38.681859 -121.399010 334 79ft 0kts
26-Jun-19 10:46 38.681859 -121.399010 334 79ft 0kts
26-Jun-19 10:47 38.680643 -121.400566 178 79ft 37kts
26-Jun-19 10:48 38.652765 -121.397766 153 544ft 141kts
26-Jun-19 10:49 38.647582 -121.344677 85 882ft 175kts
26-Jun-19 10:50 38.653100 -121.282617 85 1259ft 173kts
26-Jun-19 10:51 38.657729 -121.221248 85 1753ft 171kts
26-Jun-19 10:52 38.661698 -121.160633 85 2282ft 170kts
26-Jun-19 10:53 38.665547 -121.100633 102 2779ft 169kts
26-Jun-19 10:54 38.626229 -121.078844 176 3218ft 163kts
26-Jun-19 10:55 38.587865 -121.093261 238 3912ft 154kts
26-Jun-19 10:56 38.571822 -121.144065 248 4854ft 154kts
26-Jun-19 10:57 38.555248 -121.198110 248 5329ft 165kts
26-Jun-19 10:58 38.538302 -121.252235 247 5713ft 164kts
26-Jun-19 10:59 38.521244 -121.306380 247 6009ft 167kts
26-Jun-19 11:00 38.503912 -121.361310 247 5999ft 165kts
26-Jun-19 11:01 38.486751 -121.415582 247 5999ft 164kts
26-Jun-19 11:02 38.469546 -121.469887 247 5999ft 164kts
26-Jun-19 11:03 38.452403 -121.523924 247 6000ft 164kts
26-Jun-19 11:04 38.421241 -121.556734 180 6004ft 165kts
26-Jun-19 11:05 38.375621 -121.563851 190 5999ft 165kts
26-Jun-19 11:06 38.330508 -121.577329 193 5999ft 167kts
26-Jun-19 11:07 38.285215 -121.591880 193 5999ft 167kts
26-Jun-19 11:08 38.239936 -121.606532 193 5998ft 168kts
26-Jun-19 11:09 38.192148 -121.621974 193 5984ft 177kts
26-Jun-19 11:10 38.145718 -121.637016 193 5998ft 169kts
26-Jun-19 11:11 38.100474 -121.651624 193 6001ft 168kts
26-Jun-19 11:12 38.054820 -121.666350 193 5999ft 168kts
26-Jun-19 11:13 38.009517 -121.680938 193 5998ft 168kts
26-Jun-19 11:14 37.964195 -121.695519 193 6000ft 168kts
26-Jun-19 11:15 37.918676 -121.710146 193 5999ft 168kts
26-Jun-19 11:16 37.873208 -121.724711 193 5998ft 169kts
26-Jun-19 11:17 37.827786 -121.739317 193 5963ft 170kts
26-Jun-19 11:18 37.778951 -121.753941 180 5260ft 186kts
26-Jun-19 11:19 37.729372 -121.742725 167 5049ft 170kts
26-Jun-19 11:20 37.687165 -121.731530 166 5069ft 166kts
26-Jun-19 11:21 37.641932 -121.719679 166 5072ft 166kts
26-Jun-19 11:22 37.596698 -121.707956 167 5065ft 166kts
26-Jun-19 11:23 37.554152 -121.715925 222 5086ft 166kts
26-Jun-19 11:24 37.524604 -121.759449 260 5063ft 166kts
26-Jun-19 11:25 37.520125 -121.817641 264 5070ft 167kts
26-Jun-19 11:26 37.529448 -121.873630 306 4754ft 177kts
26-Jun-19 11:27 37.556378 -121.924121 304 4376ft 178kts
26-Jun-19 11:28 37.582256 -121.977773 299 3352ft 165kts
26-Jun-19 11:29 37.608096 -122.024436 304 2491ft 163kts
26-Jun-19 11:30 37.633138 -122.070742 302 1053ft 144kts
26-Jun-19 11:31 37.651481 -122.106545 297 287ft 100kts
26-Jun-19 11:32 37.659656 -122.122411 1 54ft 5kts

Navigation Log

Ident Type
Flight plan parsing failed, navigation log unavailable